Flight Track Log - Related Links

Times and Time Zones

All times are in EDT time to prevent confusion due to time zone crossing. See the UPS2332 flight status page for this flight to view local times or setup timezone preferences in your user account.

Time Position Orientation Groundspeed Altitude Reporting Facility
EDT Latitude Longitude Course Direction KTS MPH feet Rate Location/Type
Thu 04:49:24 PM 38.2232 -85.7698 331° Northwest 218 251 3,000  Level FlightAware ADS-B
Thu 04:50:14 PM 38.2681 -85.8042 314° West 269 310 5,400 2,852 Climbing FlightAware ADS-B
Thu 04:50:25 PM 38.2593 -85.7950 294° West 277 319 5,900 3,830 Climbing FlightAware ADS-B
Thu 04:51:01 PM 38.2727 -85.8789 248° West 288 331 8,400 4,000 Climbing FlightAware ADS-B
Thu 04:51:13 PM 38.2690 -85.8876 223° Southwest 298 343 9,100 1,915 Climbing FlightAware ADS-B
Thu 04:51:48 PM 38.2241 -85.9352 216° Southwest 299 344 9,900 1,440 Climbing FlightAware ADS-B
Thu 04:52:28 PM 38.1894 -85.9666 216° Southwest 333 383 10,900 1,524 Climbing FlightAware ADS-B
Thu 04:52:51 PM 38.1416 -85.9995 194° South 375 432 11,500 1,700 Climbing FlightAware ADS-B
Thu 04:53:28 PM 38.0814 -85.9907 161° South 413 475 12,600 2,385 Climbing FlightAware ADS-B
Thu 04:54:09 PM 37.9989 -85.9572 162° South 433 498 14,600 2,958 Climbing FlightAware ADS-B
Thu 04:54:39 PM 37.9463 -85.9352 162° South 442 509 16,100 2,700 Climbing FlightAware ADS-B
Thu 04:55:09 PM 37.8858 -85.9101 162° South 458 527 17,300 2,600 Climbing FlightAware ADS-B
Thu 04:55:39 PM 37.8192 -85.8831 162° South 466 536 18,700 2,557 Climbing FlightAware ADS-B
Thu 04:56:10 PM 37.7595 -85.8590 162° South 475 547 19,900 2,640 Climbing FlightAware ADS-B
Thu 04:56:54 PM 37.6624 -85.8198 162° South 479 551 22,000 3,486 Climbing FlightAware ADS-B
Thu 04:57:24 PM 37.6030 -85.7960 162° South 460 529 24,200 3,400 Climbing FlightAware ADS-B
Thu 04:57:54 PM 37.5547 -85.7766 162° South 465 535 25,400 2,613 Climbing FlightAware ADS-B
Thu 04:58:26 PM 37.4751 -85.7447 162° South 463 533 26,900 2,323 Climbing FlightAware ADS-B
Thu 04:58:56 PM 37.4144 -85.7205 162° South 473 544 27,800 1,600 Climbing FlightAware ADS-B
Thu 04:59:26 PM 37.3496 -85.6945 162° South 485 558 28,500 1,750 Climbing FlightAware ADS-B
Thu 05:00:08 PM 37.2574 -85.6577 162° South 495 570 29,900 1,865 Climbing FlightAware ADS-B
Thu 05:00:40 PM 37.2071 -85.6376 162° South 501 577 30,800 1,462 Climbing FlightAware ADS-B
Thu 05:01:26 PM 37.0851 -85.5891 162° South 511 588 31,800 1,648 Climbing FlightAware ADS-B
Thu 05:02:11 PM 36.9890 -85.5510 162° South 509 586 33,300 1,630 Climbing FlightAware ADS-B
Thu 05:02:47 PM 36.9131 -85.5210 163° South 514 592 34,000 560 Climbing FlightAware ADS-B
Thu 05:03:26 PM 36.8163 -85.4829 163° South 524 603 34,000 875 Level FlightAware ADS-B
Thu 05:04:23 PM 36.7041 -85.4389 162° South 519 597 35,400 1,448 Climbing FlightAware ADS-B
Thu 05:04:53 PM 36.6269 -85.4085 163° South 515 593 36,100 1,032 Climbing FlightAware ADS-B
Thu 05:05:56 PM 36.4737 -85.3486 163° South 492 566 37,000 446 Climbing FlightAware ADS-B
Thu 05:06:54 PM 36.3577 -85.3033 163° South 489 563 37,000  Level FlightAware ADS-B
Thu 05:08:03 PM 36.2001 -85.2423 163° South 494 568 37,000  Level FlightAware ADS-B
Thu 05:09:00 PM 36.0751 -85.1938 163° South 485 558 37,000  Level FlightAware ADS-B
Thu 05:09:33 PM 36.0049 -85.1667 163° South 481 554 37,000  Level FlightAware ADS-B
Thu 05:10:36 PM 35.8783 -85.1228 163° South 485 558 37,000  Level Atlanta Center
Thu 05:11:36 PM 35.7639 -85.0803 163° South 485 558 37,000  Level Atlanta Center
Thu 05:12:36 PM 35.6372 -85.0303 162° South 480 552 37,000  Level Atlanta Center
Thu 05:13:36 PM 35.5122 -84.9803 162° South 480 552 37,000  Level Atlanta Center
Thu 05:14:36 PM 35.3875 -84.9328 163° South 480 552 37,000  Level Atlanta Center
Thu 05:15:36 PM 35.2606 -84.8883 164° South 480 552 37,000  Level Atlanta Center
Thu 05:16:36 PM 35.1333 -84.8717 174° South 473 544 37,000  Level Atlanta Center
Thu 05:17:36 PM 35.0061 -84.8578 175° South 468 539 37,000  Level Atlanta Center
Thu 05:18:36 PM 34.8789 -84.8464 176° South 463 533 37,000  Level Atlanta Center
Thu 05:19:36 PM 34.7517 -84.8325 175° South 463 533 37,000  Level Atlanta Center
Thu 05:20:36 PM 34.6267 -84.8189 175° South 463 533 37,000  Level Atlanta Center
Thu 05:21:36 PM 34.5014 -84.8075 176° South 458 527 37,000  Level Atlanta Center
Thu 05:22:36 PM 34.3783 -84.7964 176° South 458 527 37,000  Level Atlanta Center
Thu 05:23:36 PM 34.2447 -84.8028 182° South 453 521 37,000  Level Atlanta Center
Thu 05:24:36 PM 34.1486 -84.8194 188° South 447 514 37,000  Level Atlanta Center
Thu 05:25:36 PM 34.0044 -84.8506 190° South 446 513 37,000  Level Atlanta Center
Thu 05:26:36 PM 33.8853 -84.8847 193° South 441 507 37,000  Level Atlanta Center
Thu 05:27:36 PM 33.7642 -84.9108 190° South 441 507 37,000  Level Atlanta Center
Thu 05:28:36 PM 33.6389 -84.9072 179° South 446 513 37,000  Level Atlanta Center
Thu 05:29:36 PM 33.5181 -84.8461 157° South 446 513 37,000  Level Atlanta Center
Thu 05:30:36 PM 33.3975 -84.7728 153° Southeast 462 532 37,000  Level Atlanta Center
Thu 05:31:36 PM 33.2728 -84.6972 153° Southeast 483 556 37,000  Level Atlanta Center
Thu 05:32:36 PM 33.1500 -84.6244 154° Southeast 488 562 37,000  Level Atlanta Center
Thu 05:33:36 PM 33.0292 -84.5542 154° Southeast 483 556 37,000  Level Atlanta Center
Thu 05:34:36 PM 32.9083 -84.4842 154° Southeast 488 562 37,000  Level Atlanta Center
Thu 05:35:36 PM 32.7897 -84.4169 155° Southeast 488 562 37,000  Level Atlanta Center
Thu 05:36:36 PM 32.6833 -84.3522 153° Southeast 483 556 37,000  Level Atlanta Center
Thu 05:37:36 PM 32.5644 -84.2853 155° Southeast 483 556 37,000  Level Atlanta Center
Thu 05:38:36 PM 32.4458 -84.2186 155° Southeast 478 550 37,000  Level Atlanta Center
Thu 05:39:36 PM 32.3267 -84.1494 154° Southeast 478 550 37,000  Level Atlanta Center
Thu 05:40:36 PM 32.2119 -84.0831 154° Southeast 466 536 37,000  Level Atlanta Center
Thu 05:41:36 PM 32.0931 -84.0144 154° Southeast 466 536 37,000  Level Atlanta Center
Thu 05:49:44 PM 31.1044 -83.5706 167° South 463 533 37,000  Level FlightAware ADS-B (KONZ)
Thu 05:51:39 PM 30.8642 -83.5047 166° South 458 527 37,000  Level Jacksonville Center
Thu 05:52:39 PM 30.7414 -83.4703 169° South 458 527 37,000  Level Jacksonville Center
Thu 05:52:44 PM 30.7213 -83.4667 167° South 473 544 37,000  Level FlightAware ADS-B (KONZ)
Thu 05:53:39 PM 30.6142 -83.4381 168° South 464 534 37,000  Level Jacksonville Center
Thu 05:54:00 PM 30.5947 -83.4459 169° South  Level FlightAware Approximate
Thu 05:54:39 PM 30.4847 -83.4036 167° South 471 542 37,000  Level Jacksonville Center
Thu 05:55:39 PM 30.3553 -83.3692 167° South 471 542 37,000  Level Jacksonville Center
Thu 05:56:39 PM 30.2281 -83.3350 167° South 471 542 37,000  Level Jacksonville Center
Thu 05:57:39 PM 30.1031 -83.3031 168° South 471 542 37,000  Level Jacksonville Center
Thu 05:58:00 PM 30.1139 -83.3248 166° South  Level FlightAware Approximate
Thu 05:58:39 PM 29.9736 -83.2689 167° South 471 542 37,000  Level Jacksonville Center
Thu 05:59:39 PM 29.8444 -83.2375 168° South 471 542 37,000  Level Jacksonville Center
Thu 06:00:39 PM 29.7211 -83.2033 166° South 471 542 37,000  Level Jacksonville Center
Thu 06:09:23 PM 28.6261 -82.9147 167° South 461 531 37,000  Level FlightAware ADS-B
Thu 06:09:54 PM 28.5684 -82.8999 167° South 462 532 37,000  Level FlightAware ADS-B
Thu 06:11:13 PM 28.3985 -82.8562 167° South 460 529 37,000  Level FlightAware ADS-B
Thu 06:11:53 PM 28.3115 -82.8339 167° South 460 529 37,000  Level FlightAware ADS-B
Thu 06:12:41 PM 28.2060 -82.8068 167° South 461 531 37,000  Level FlightAware ADS-B
Thu 06:13:55 PM 28.1078 -82.7818 167° South 462 532 37,000  Level FlightAware ADS-B
Thu 06:14:32 PM 27.9731 -82.7470 166° South 462 532 37,000  Level FlightAware ADS-B
Thu 06:15:01 PM 27.9137 -82.7277 162° South 461 531 37,000  Level FlightAware ADS-B (KEYW)
Thu 06:15:31 PM 27.8534 -82.7055 161° South 460 529 37,000  Level FlightAware ADS-B (KEYW)
Thu 06:16:01 PM 27.8064 -82.6877 161° South 461 531 37,000  Level FlightAware ADS-B (KEYW)
Thu 06:16:31 PM 27.7321 -82.6597 161° South 461 531 37,000  Level FlightAware ADS-B (KEYW)
Thu 06:16:48 PM 27.6982 -82.6469 161° South 461 531 37,000  Level FlightAware ADS-B
Thu 06:17:03 PM 27.6718 -82.6369 161° South 460 529 37,000  Level FlightAware ADS-B (KEYW)
Thu 06:17:28 PM 27.6189 -82.6170 162° South 461 531 37,000  Level FlightAware ADS-B
Thu 06:17:30 PM 27.6198 -82.6173 161° South 460 529 37,000  Level FlightAware ADS-B (KEYW)
Thu 06:18:21 PM 27.5126 -82.5772 161° South 460 529 37,000  Level FlightAware ADS-B (KEYW)
Thu 06:18:35 PM 27.5047 -82.5743 162° South 461 531 37,000  Level FlightAware ADS-B
Thu 06:19:06 PM 27.4266 -82.5453 161° South 461 531 37,000  Level FlightAware ADS-B (KEYW)
Thu 06:19:53 PM 27.3225 -82.5064 161° South 462 532 37,000  Level FlightAware ADS-B (KEYW)
Thu 06:20:23 PM 27.2621 -82.4841 161° South 463 533 37,000  Level FlightAware ADS-B (KEYW)
Thu 06:20:48 PM 27.2416 -82.4764 161° South 463 533 37,000  Level FlightAware ADS-B (KEYW)
Thu 06:21:36 PM 27.1191 -82.4309 162° South 463 533 37,000  Level FlightAware ADS-B
Thu 06:22:23 PM 27.0220 -82.3949 161° South 463 533 37,000  Level FlightAware ADS-B (KEYW)
Thu 06:23:07 PM 26.9312 -82.3613 161° South 461 531 37,000 -132 Level FlightAware ADS-B (KEYW)
Thu 06:23:54 PM 26.8331 -82.3251 161° South 453 521 36,800 -346 Descending FlightAware ADS-B (KEYW)
Thu 06:23:59 PM 26.8233 -82.3214 162° South 454 522 36,700 -1,333 Descending FlightAware ADS-B
Thu 06:24:39 PM 26.7466 -82.2850 150° Southeast 454 522 35,800 -1,358 Descending FlightAware ADS-B (KEYW)
Thu 06:24:52 PM 26.7224 -82.2681 146° Southeast 457 526 35,500 -1,333 Descending FlightAware ADS-B
Thu 06:25:24 PM 26.6678 -82.2218 142° Southeast 458 527 34,800 -1,176 Descending FlightAware ADS-B (KEYW)
Thu 06:25:43 PM 26.6383 -82.1963 142° Southeast 459 528 34,500 -1,000 Descending FlightAware ADS-B
Thu 06:25:54 PM 26.6178 -82.1783 141° Southeast 459 528 34,300 -1,171 Descending FlightAware ADS-B (KEYW)
Thu 06:26:24 PM 26.5673 -82.1342 142° Southeast 458 527 33,700 -1,080 Descending FlightAware ADS-B (KEYW)
Thu 06:26:44 PM 26.5342 -82.1055 142° Southeast 456 525 33,400 -1,000 Descending FlightAware ADS-B
Thu 06:26:54 PM 26.5172 -82.0907 142° Southeast 455 524 33,200 -1,231 Descending FlightAware ADS-B (KEYW)
Thu 06:27:23 PM 26.4690 -82.0489 142° Southeast 458 527 32,600 -1,200 Descending FlightAware ADS-B
Thu 06:27:24 PM 26.4666 -82.0469 141° Southeast 457 526 32,600 -1,286 Level FlightAware ADS-B (KEYW)
Thu 06:27:51 PM 26.4214 -82.0079 142° Southeast 458 527 32,000 -1,227 Descending FlightAware ADS-B (KEYW)
Thu 06:28:08 PM 26.3932 -81.9836 142° Southeast 461 531 31,700 -1,235 Descending FlightAware ADS-B
Thu 06:28:25 PM 26.3666 -81.9606 142° Southeast 462 532 31,300 -1,317 Descending FlightAware ADS-B (KEYW)
Thu 06:28:49 PM 26.3240 -81.9242 142° Southeast 465 535 30,800 -1,364 Descending FlightAware ADS-B
Thu 06:29:09 PM 26.2887 -81.8939 142° Southeast 467 537 30,300 -1,418 Descending FlightAware ADS-B (KEYW)
Thu 06:29:44 PM 26.2304 -81.8437 142° Southeast 469 540 29,500 -1,698 Descending FlightAware ADS-B (KEYW)
Thu 06:30:02 PM 26.2022 -81.8196 142° Southeast 471 542 28,800 -1,607 Descending FlightAware ADS-B
Thu 06:30:40 PM 26.1455 -81.7465 119° Southeast 473 544 28,000 -2,169 Descending FlightAware ADS-B (KEYW)
Thu 06:31:25 PM 26.1105 -81.6452 110° East 462 532 25,800 -2,880 Descending FlightAware ADS-B (KEYW)
Thu 06:31:55 PM 26.0896 -81.5795 109° East 453 521 24,400 -3,000 Descending FlightAware ADS-B (KEYW)
Thu 06:32:25 PM 26.0685 -81.5134 109° East 446 513 22,800 -3,200 Descending FlightAware ADS-B (KEYW)
Thu 06:32:55 PM 26.0477 -81.4488 109° East 440 506 21,200 -3,200 Descending FlightAware ADS-B (KEYW)
Thu 06:33:25 PM 26.0295 -81.3922 109° East 432 497 19,600 -3,100 Descending FlightAware ADS-B (KEYW)
Thu 06:33:55 PM 26.0071 -81.3226 109° East 419 482 18,100 -3,246 Descending FlightAware ADS-B (KEYW)
Thu 06:34:26 PM 25.9873 -81.2623 109° East 414 476 16,300 -3,395 Descending FlightAware ADS-B (KEYW)
Thu 06:35:11 PM 25.9586 -81.1736 109° East 397 457 13,800 -3,371 Descending FlightAware ADS-B (KEYW)
Thu 06:35:55 PM 25.9310 -81.0902 112° Southeast 375 432 11,300 -2,333 Descending FlightAware ADS-B (KEYW)
Thu 06:36:41 PM 25.8930 -81.0202 121° Southeast 333 383 10,300 -923 Descending FlightAware ADS-B (KEYW)
Thu 06:37:26 PM 25.8635 -80.9551 101° East 305 351 9,900 -490 Descending FlightAware ADS-B (KEYW)
Thu 06:37:30 PM 25.8632 -80.9488 92° East 298 343 9,900  Level FlightAware ADS-B (KEYW)
Thu 06:37:35 PM 25.8636 -80.9404 85° East 293 337 9,900 -692 Level FlightAware ADS-B (KEYW)
Thu 06:37:56 PM 25.8669 -80.9100 83° East 283 326 9,600 -857 Descending FlightAware ADS-B (KEYW)
Thu 06:38:24 PM 25.8692 -80.8877 84° East 284 327 9,200 -1,345 Descending FlightAware ADS-B (KEYW)
Thu 06:38:54 PM 25.8676 -80.8265 84° East 284 327 8,300 -1,667 Descending FlightAware ADS-B (KEYW)
Thu 06:39:00 PM 25.8669 -80.8167 94° East 283 326 8,200 -1,737 Descending FlightAware ADS-B (KEYW)
Thu 06:39:32 PM 25.8640 -80.7706 94° East 283 326 7,200 -1,594 Descending FlightAware ADS-B (KEYW)
Thu 06:40:04 PM 25.8616 -80.7289 93° East 258 297 6,500 -1,043 Descending FlightAware ADS-B (KEYW)
Thu 06:41:04 PM 25.8561 -80.6539 93° East 245 282 5,600 -911 Descending Miami Center
Thu 06:41:56 PM 25.8533 -80.5925 93° East 241 277 4,800 -1,009 Descending Miami Center
Thu 06:42:57 PM 25.8458 -80.5233 97° East 230 265 3,700 -1,105 Descending Miami Center
Thu 06:43:12 PM 25.8383 -80.5089 120° Southeast 220 253 3,400 -968 Descending Miami Center
Thu 06:43:59 PM 25.8208 -80.4619 112° Southeast 219 252 2,700 -889 Descending Miami Center
Thu 06:45:00 PM 25.8025 -80.4061 110° East 194 223 1,800 -780 Descending Miami Center
Thu 06:46:02 PM 25.8006 -80.3567 92° East 160 184 1,100 -800 Descending Miami Center
Thu 06:46:15 PM 25.8008 -80.3439 89° East 152 175 800 -871 Descending Miami Center
Thu 06:47:04 PM 25.8022 -80.3117 87° East 148 170 200 -735 Descending Miami Center
Thu 06:49:00 PM 25.7954 -80.2901 24° Northeast  Level Estimated

Login

Don't have an account? Register now (free) for customized features, flight alerts, and more!